Time;durP1;ratioP1;P1;durP2;ratioP2;P2;SDS_P1;SDS_P2;PMS_P1;PMS_P2;Temp;Humidity;BMP_temperature;BMP_pressure;BME280_temperature;BME280_humidity;BME280_pressure;Samples;Min_cycle;Max_cycle;Signal;HPM_P1;HPM_P2
2022/08/04 00:03:11;;;;;;;2.13;1.40;;;24.10;73.50;;;;;;6303115;28;20055;-82
2022/08/04 00:06:20;;;;;;;2.80;1.40;;;24.10;73.60;;;;;;6304141;28;20055;-82
2022/08/04 00:09:29;;;;;;;4.50;1.13;;;24.10;73.70;;;;;;6304181;28;20051;-82
2022/08/04 00:12:33;;;;;;;3.17;1.20;;;24.00;74.00;;;;;;6303707;28;20049;-82
2022/08/04 00:15:37;;;;;;;3.17;1.60;;;24.00;74.10;;;;;;6303996;28;20543;-82
2022/08/04 00:18:41;;;;;;;3.25;1.60;;;23.90;74.30;;;;;;6302213;28;20047;-82
2022/08/04 00:21:55;;;;;;;1.73;1.33;;;23.80;74.80;;;;;;6303176;28;20048;-82
2022/08/04 00:24:58;;;;;;;4.57;1.50;;;23.80;75.20;;;;;;6301975;28;20056;-83
2022/08/04 00:28:00;;;;;;;1.73;1.20;;;23.70;75.30;;;;;;6303715;28;20060;-80
2022/08/04 00:31:04;;;;;;;1.63;1.17;;;23.70;75.40;;;;;;6294623;28;20100;-82
2022/08/04 00:34:07;;;;;;;6.28;1.25;;;23.60;76.30;;;;;;6277817;28;20049;-84
2022/08/04 00:37:09;;;;;;;2.17;1.10;;;23.50;76.10;;;;;;6279072;28;20052;-82
2022/08/04 00:40:23;;;;;;;2.13;1.02;;;23.50;75.80;;;;;;6277660;28;20045;-83
2022/08/04 00:43:31;;;;;;;3.17;1.13;;;23.50;75.80;;;;;;6278628;28;20048;-83
2022/08/04 00:46:50;;;;;;;11.63;1.45;;;23.50;75.90;;;;;;6279002;28;20049;-83
2022/08/04 00:50:05;;;;;;;2.67;1.00;;;23.40;76.00;;;;;;6278411;28;20059;-84
2022/08/04 00:53:11;;;;;;;3.08;1.10;;;23.50;76.20;;;;;;6279461;28;20076;-82
2022/08/04 00:56:29;;;;;;;2.95;1.38;;;23.40;76.40;;;;;;6278841;28;20139;-81
2022/08/04 00:59:50;;;;;;;1.65;1.10;;;23.40;76.90;;;;;;6291577;28;20041;-81
2022/08/04 01:03:08;;;;;;;5.32;1.08;;;23.40;76.40;;;;;;6296206;28;20415;-83
2022/08/04 01:06:21;;;;;;;3.67;1.50;;;23.20;76.80;;;;;;6278996;28;20053;-84
2022/08/04 01:09:31;;;;;;;2.45;1.25;;;23.20;77.00;;;;;;6278769;28;20045;-84
2022/08/04 01:12:51;;;;;;;3.67;1.35;;;23.10;77.40;;;;;;6278829;28;20047;-84
2022/08/04 01:15:59;;;;;;;2.47;1.20;;;23.10;77.60;;;;;;6279662;28;20051;-84
2022/08/04 01:19:13;;;;;;;2.25;1.27;;;23.00;77.80;;;;;;6279125;28;20048;-84
2022/08/04 01:22:27;;;;;;;2.40;1.35;;;23.00;78.10;;;;;;6279650;28;20059;-84
2022/08/04 01:25:47;;;;;;;1.65;1.17;;;22.90;78.30;;;;;;6279586;28;20049;-82
2022/08/04 01:29:08;;;;;;;2.38;1.52;;;22.80;78.60;;;;;;6279795;28;20566;-83
2022/08/04 01:32:18;;;;;;;4.82;1.35;;;22.80;79.10;;;;;;6282050;28;20049;-81
2022/08/04 01:35:25;;;;;;;2.28;1.27;;;22.80;79.40;;;;;;6281520;28;20064;-81
2022/08/04 01:38:29;;;;;;;2.63;1.38;;;22.60;79.70;;;;;;6280380;28;20060;-83
2022/08/04 01:41:31;;;;;;;2.65;1.63;;;22.60;80.00;;;;;;6278417;28;20044;-81
2022/08/04 01:44:36;;;;;;;4.40;1.50;;;22.50;80.60;;;;;;6278040;28;20059;-81
2022/08/04 01:47:42;;;;;;;6.55;1.70;;;22.40;81.00;;;;;;6277048;28;20037;-80
2022/08/04 01:50:45;;;;;;;4.88;1.45;;;22.40;81.30;;;;;;6277334;28;20524;-80
2022/08/04 01:53:47;;;;;;;6.72;1.70;;;22.30;81.70;;;;;;6278090;28;20053;-82
2022/08/04 01:56:50;;;;;;;4.03;1.40;;;22.30;82.10;;;;;;6277057;28;20049;-78
2022/08/04 01:59:53;;;;;;;2.58;1.88;;;22.30;82.50;;;;;;6276746;28;20060;-82
2022/08/04 02:02:56;;;;;;;2.85;1.60;;;22.30;82.60;;;;;;6277135;28;20037;-78
2022/08/04 02:06:11;;;;;;;2.00;1.50;;;22.30;83.00;;;;;;6276961;28;20048;-78
2022/08/04 02:09:22;;;;;;;4.03;2.00;;;22.10;83.10;;;;;;6276801;28;20108;-80
2022/08/04 02:12:32;;;;;;;2.65;1.50;;;22.10;83.60;;;;;;6276610;28;20048;-78
2022/08/04 02:15:46;;;;;;;2.90;1.60;;;22.00;83.90;;;;;;6276374;28;20045;-79
2022/08/04 02:18:57;;;;;;;2.28;1.35;;;22.10;84.50;;;;;;6276114;28;20041;-82
2022/08/04 02:22:07;;;;;;;4.55;1.75;;;22.00;85.10;;;;;;6277009;28;20068;-80
2022/08/04 02:25:10;;;;;;;2.70;1.30;;;22.00;85.40;;;;;;6276794;28;20419;-82
2022/08/04 02:28:19;;;;;;;4.53;1.95;;;22.00;85.70;;;;;;6275921;28;20084;-81
2022/08/04 02:31:32;;;;;;;8.38;2.05;;;21.90;86.10;;;;;;6276952;28;20528;-81
2022/08/04 02:34:41;;;;;;;2.05;1.55;;;21.90;86.50;;;;;;6276544;28;20048;-80
2022/08/04 02:37:48;;;;;;;3.03;1.40;;;21.90;86.60;;;;;;6276574;28;20056;-82
2022/08/04 02:40:51;;;;;;;2.30;1.75;;;21.90;86.70;;;;;;6275560;28;20393;-80
2022/08/04 02:43:56;;;;;;;4.47;1.50;;;21.90;86.90;;;;;;6275910;28;20435;-80
2022/08/04 02:47:00;;;;;;;3.60;1.83;;;21.80;87.00;;;;;;6275978;28;20048;-79
2022/08/04 02:50:03;;;;;;;3.30;1.50;;;21.80;87.30;;;;;;6274733;28;20041;-80
2022/08/04 02:53:06;;;;;;;2.33;1.50;;;21.80;87.50;;;;;;6276369;28;20052;-79
2022/08/04 02:56:09;;;;;;;4.63;1.80;;;21.70;87.70;;;;;;6275629;28;20048;-80
2022/08/04 02:59:13;;;;;;;2.25;1.60;;;21.70;87.80;;;;;;6275460;28;20041;-80
2022/08/04 03:02:23;;;;;;;6.88;1.70;;;21.70;87.70;;;;;;6275376;28;20049;-81
2022/08/04 03:05:28;;;;;;;5.97;1.52;;;21.70;87.70;;;;;;6275919;28;20049;-79
2022/08/04 03:09:06;;;;;;;2.65;1.75;;;21.70;87.80;;;;;;6274631;28;20053;-79
2022/08/04 03:12:38;;;;;;;3.65;1.60;;;21.60;88.00;;;;;;6257585;28;20045;-80
2022/08/04 03:16:02;;;;;;;2.42;1.27;;;21.50;88.00;;;;;;6274942;28;20045;-79
2022/08/04 03:19:58;;;;;;;3.58;1.30;;;21.50;88.10;;;;;;6273971;28;20045;-80
2022/08/04 03:23:36;;;;;;;3.78;1.65;;;21.40;88.30;;;;;;6274775;28;20420;-79
2022/08/04 03:27:08;;;;;;;3.10;1.90;;;21.40;88.50;;;;;;6253238;28;20051;-79
2022/08/04 03:30:14;;;;;;;6.78;1.77;;;21.30;88.70;;;;;;6274496;28;20051;-79
2022/08/04 03:33:41;;;;;;;6.95;1.60;;;21.20;89.00;;;;;;6274502;28;20049;-79
2022/08/04 03:37:07;;;;;;;3.35;1.70;;;21.20;89.60;;;;;;6273500;28;20049;-78
2022/08/04 03:40:46;;;;;;;4.22;1.30;;;21.20;89.50;;;;;;6273245;28;20053;-78
2022/08/04 03:44:21;;;;;;;2.33;1.30;;;21.20;89.40;;;;;;6273969;28;20040;-78
2022/08/04 03:47:36;;;;;;;4.90;1.60;;;21.30;89.70;;;;;;6273407;28;20045;-79
2022/08/04 03:55:26;;;;;;;3.38;1.63;;;21.20;89.60;;;;;;6148645;28;20043;-79
2022/08/04 03:58:53;;;;;;;5.22;1.48;;;21.20;89.80;;;;;;6171071;28;20413;-79
2022/08/04 04:02:26;;;;;;;3.28;1.77;;;21.10;89.90;;;;;;6249399;28;20054;-78
2022/08/04 04:06:08;;;;;;;3.33;1.90;;;21.20;89.90;;;;;;6248564;28;20128;-79
2022/08/04 04:09:28;;;;;;;2.28;1.55;;;21.20;89.90;;;;;;6245178;28;20053;-78
2022/08/04 04:13:09;;;;;;;3.50;1.88;;;21.10;89.70;;;;;;6248240;28;20054;-78
2022/08/04 04:16:37;;;;;;;4.25;1.55;;;21.10;90.00;;;;;;6248225;28;20535;-80
2022/08/04 04:19:58;;;;;;;6.63;1.67;;;21.00;90.00;;;;;;6248023;28;20065;-79
2022/08/04 04:23:21;;;;;;;2.50;1.67;;;21.00;90.00;;;;;;6248156;28;20085;-78
2022/08/04 04:26:48;;;;;;;2.20;1.90;;;21.00;90.10;;;;;;6248089;28;20051;-78
2022/08/04 04:30:02;;;;;;;6.80;2.03;;;21.00;90.20;;;;;;6247948;28;20050;-79
2022/08/04 04:33:19;;;;;;;2.97;2.03;;;21.00;90.20;;;;;;6273046;28;20049;-78
2022/08/04 04:36:29;;;;;;;2.65;1.50;;;21.00;90.20;;;;;;6253016;28;20440;-78
2022/08/04 04:39:37;;;;;;;1.58;1.17;;;21.10;90.20;;;;;;6247720;28;20052;-78
2022/08/04 04:42:54;;;;;;;3.63;1.55;;;21.10;90.00;;;;;;6248191;28;20045;-78
2022/08/04 04:46:06;;;;;;;5.35;1.60;;;21.20;89.80;;;;;;6248326;28;20067;-79
2022/08/04 04:49:17;;;;;;;3.78;1.50;;;21.40;89.40;;;;;;6247668;28;20049;-79
2022/08/04 04:52:26;;;;;;;3.83;1.63;;;21.50;88.90;;;;;;6247355;28;20500;-80
2022/08/04 04:55:33;;;;;;;1.75;1.27;;;21.70;88.40;;;;;;6247506;28;20051;-78
2022/08/04 04:58:37;;;;;;;1.97;1.17;;;21.80;87.90;;;;;;6247224;28;20509;-79
2022/08/04 05:02:07;;;;;;;2.40;1.27;;;22.00;87.50;;;;;;6248085;28;20307;-80
2022/08/04 05:05:30;;;;;;;2.80;1.80;;;22.10;87.10;;;;;;6247947;28;20050;-78
2022/08/04 05:08:49;;;;;;;2.08;1.52;;;22.30;86.40;;;;;;6247133;28;20060;-80
2022/08/04 05:12:14;;;;;;;4.75;1.63;;;22.50;85.80;;;;;;6248227;28;20045;-80
2022/08/04 05:15:18;;;;;;;3.22;1.67;;;22.70;85.30;;;;;;6247709;28;20049;-78
2022/08/04 05:18:25;;;;;;;4.65;1.90;;;23.00;84.60;;;;;;6246919;28;20063;-79
2022/08/04 05:21:37;;;;;;;5.43;1.50;;;23.20;83.70;;;;;;6248703;28;20647;-79
2022/08/04 05:24:42;;;;;;;2.33;1.75;;;23.80;82.60;;;;;;6247877;28;20528;-79
2022/08/04 05:27:49;;;;;;;3.90;1.40;;;25.40;78.30;;;;;;6247566;28;20052;-80
2022/08/04 05:31:00;;;;;;;7.75;1.55;;;27.30;71.30;;;;;;6247490;28;20416;-80
2022/08/04 05:34:08;;;;;;;10.50;2.50;;;28.70;65.80;;;;;;6247813;28;20064;-80
2022/08/04 05:37:14;;;;;;;2.50;1.27;;;29.00;63.40;;;;;;6248097;28;20054;-79
2022/08/04 05:40:19;;;;;;;2.63;1.80;;;29.30;62.70;;;;;;6248087;28;20057;-81
2022/08/04 05:43:22;;;;;;;6.10;1.70;;;29.80;60.90;;;;;;6247922;28;20052;-82
2022/08/04 05:46:25;;;;;;;8.90;2.15;;;30.00;60.00;;;;;;6248377;28;20057;-79
2022/08/04 05:49:29;;;;;;;5.97;1.60;;;30.30;59.70;;;;;;6252352;28;20411;-82
2022/08/04 05:52:32;;;;;;;5.50;1.50;;;30.70;58.80;;;;;;6310498;28;20048;-79
2022/08/04 05:55:34;;;;;;;4.75;1.60;;;31.30;57.50;;;;;;6280915;28;20045;-77
2022/08/04 05:58:36;;;;;;;11.20;1.65;;;32.10;55.10;;;;;;6270098;28;20041;-78
2022/08/04 06:01:39;;;;;;;9.77;2.10;;;32.70;52.40;;;;;;6270740;28;20077;-78
2022/08/04 06:04:48;;;;;;;3.33;1.08;;;33.50;50.20;;;;;;6270093;28;20089;-78
2022/08/04 06:07:50;;;;;;;8.55;1.42;;;34.40;47.70;;;;;;6269737;28;20048;-78
2022/08/04 06:10:53;;;;;;;5.03;1.25;;;35.30;46.00;;;;;;6270066;28;20037;-78
2022/08/04 06:13:58;;;;;;;6.32;1.98;;;36.30;44.00;;;;;;6271185;28;20151;-77
2022/08/04 06:17:01;;;;;;;7.63;1.50;;;37.00;42.20;;;;;;6300149;28;20492;-78
2022/08/04 06:20:07;;;;;;;3.55;1.70;;;38.00;40.80;;;;;;6281704;28;20045;-77
2022/08/04 06:23:11;;;;;;;13.25;2.33;;;38.70;39.10;;;;;;6274943;28;20041;-78
2022/08/04 06:26:18;;;;;;;6.43;2.00;;;39.30;38.10;;;;;;6274670;28;20049;-78
2022/08/04 06:29:26;;;;;;;9.60;2.05;;;39.80;37.40;;;;;;6275083;28;20056;-77
2022/08/04 06:32:35;;;;;;;4.30;1.98;;;40.30;36.70;;;;;;6274558;28;20089;-79
2022/08/04 06:35:39;;;;;;;8.25;2.95;;;40.80;35.90;;;;;;6274085;28;20052;-78
2022/08/04 06:38:42;;;;;;;11.10;2.45;;;41.20;35.40;;;;;;6273957;28;20051;-80
2022/08/04 06:41:44;;;;;;;5.28;2.20;;;41.70;34.60;;;;;;6274559;28;20053;-78
2022/08/04 06:44:50;;;;;;;10.10;1.98;;;42.10;34.50;;;;;;6273754;28;20508;-78
2022/08/04 06:47:53;;;;;;;3.78;2.00;;;42.80;33.20;;;;;;6273789;28;20049;-80
2022/08/04 06:50:57;;;;;;;3.42;2.03;;;43.10;32.80;;;;;;6250516;28;20049;-79
2022/08/04 06:53:59;;;;;;;4.18;1.90;;;43.60;32.40;;;;;;6273036;28;20045;-78
2022/08/04 06:57:02;;;;;;;3.63;1.73;;;44.00;31.50;;;;;;6258706;28;20389;-79
2022/08/04 07:00:08;;;;;;;4.40;1.67;;;44.40;31.00;;;;;;6279377;28;20021;-78
2022/08/04 07:03:11;;;;;;;3.45;1.52;;;44.80;30.40;;;;;;6275616;28;20045;-78
2022/08/04 07:06:14;;;;;;;5.95;1.67;;;45.20;30.20;;;;;;6274878;28;20057;-79
2022/08/04 07:09:16;;;;;;;5.18;1.23;;;45.20;29.80;;;;;;6274859;28;20049;-80
2022/08/04 07:12:20;;;;;;;3.60;1.10;;;43.20;31.00;;;;;;6274583;28;20047;-81
2022/08/04 07:15:23;;;;;;;11.25;1.60;;;40.80;33.30;;;;;;6274818;28;20059;-79
2022/08/04 07:18:25;;;;;;;2.17;1.10;;;38.80;35.30;;;;;;6273551;28;20529;-79
2022/08/04 07:21:28;;;;;;;3.92;1.60;;;37.40;37.00;;;;;;6274680;28;20044;-80
2022/08/04 07:24:31;;;;;;;2.42;1.20;;;36.30;37.60;;;;;;6274275;28;20052;-79
2022/08/04 07:27:32;;;;;;;1.42;0.98;;;35.50;38.80;;;;;;6273877;28;20056;-82
2022/08/04 07:30:35;;;;;;;2.50;1.23;;;35.00;39.60;;;;;;6274453;28;20547;-81
2022/08/04 07:33:38;;;;;;;5.55;1.08;;;34.70;40.00;;;;;;6275147;28;20048;-82
2022/08/04 07:36:41;;;;;;;2.30;1.20;;;34.60;40.20;;;;;;6274225;28;20060;-81
2022/08/04 07:39:43;;;;;;;3.33;1.38;;;34.50;40.20;;;;;;6275055;28;20059;-82
2022/08/04 07:42:46;;;;;;;3.00;1.30;;;34.30;40.30;;;;;;6274589;28;20048;-79
2022/08/04 07:45:47;;;;;;;4.93;1.20;;;34.20;40.70;;;;;;6275897;28;20049;-80
2022/08/04 07:48:49;;;;;;;1.33;1.10;;;34.20;40.50;;;;;;6273325;28;20539;-81
2022/08/04 07:51:53;;;;;;;7.60;1.15;;;34.20;40.20;;;;;;6274752;28;20523;-81
2022/08/04 07:54:56;;;;;;;6.15;1.17;;;34.30;40.40;;;;;;6274511;28;20520;-79
2022/08/04 07:57:57;;;;;;;4.47;1.42;;;34.40;40.20;;;;;;6269120;28;20048;-82
2022/08/04 08:00:59;;;;;;;5.45;1.10;;;34.50;40.40;;;;;;6275518;28;20048;-81
2022/08/04 08:04:01;;;;;;;4.55;1.30;;;34.40;39.70;;;;;;6274548;28;20067;-81
2022/08/04 08:07:05;;;;;;;3.00;0.82;;;34.10;40.30;;;;;;6274377;28;20056;-79
2022/08/04 08:10:12;;;;;;;5.53;1.13;;;34.10;40.90;;;;;;6273325;28;20060;-79
2022/08/04 08:13:15;;;;;;;4.22;1.10;;;34.30;40.70;;;;;;6273967;28;20056;-81
2022/08/04 08:16:19;;;;;;;1.77;1.13;;;34.40;40.10;;;;;;6274149;28;20641;-80
2022/08/04 08:19:21;;;;;;;4.53;1.50;;;34.50;40.20;;;;;;6274003;28;20048;-79
2022/08/04 08:22:24;;;;;;;3.05;1.17;;;34.70;40.40;;;;;;6273232;28;20048;-79
2022/08/04 08:25:29;;;;;;;2.53;1.38;;;34.90;40.00;;;;;;6273726;28;20045;-79
2022/08/04 08:28:32;;;;;;;2.97;0.90;;;35.00;39.60;;;;;;6269475;28;20052;-82
2022/08/04 08:31:34;;;;;;;6.07;1.40;;;35.00;39.30;;;;;;6299102;28;20054;-80
2022/08/04 08:34:37;;;;;;;6.88;2.03;;;35.00;39.20;;;;;;6323490;28;20046;-81
2022/08/04 08:37:46;;;;;;;1.88;0.93;;;35.10;39.10;;;;;;6325146;28;20052;-82
2022/08/04 08:40:53;;;;;;;4.10;1.00;;;35.20;38.90;;;;;;6325028;28;20051;-80
2022/08/04 08:44:10;;;;;;;8.38;1.50;;;35.20;39.10;;;;;;6324764;28;20070;-80
2022/08/04 08:47:28;;;;;;;4.18;1.30;;;35.40;39.00;;;;;;6324161;28;20102;-80
2022/08/04 08:51:02;;;;;;;2.70;0.90;;;35.60;38.80;;;;;;6325363;28;20044;-82
2022/08/04 08:54:37;;;;;;;1.52;0.90;;;35.80;39.10;;;;;;6314716;28;20056;-83
2022/08/04 08:57:51;;;;;;;2.20;1.40;;;36.00;38.20;;;;;;6305998;28;20044;-80
2022/08/04 09:01:01;;;;;;;14.75;1.40;;;36.20;37.80;;;;;;6278482;28;20051;-80
2022/08/04 09:04:29;;;;;;;2.55;1.00;;;36.30;38.00;;;;;;6278566;28;20051;-80
2022/08/04 09:07:57;;;;;;;4.72;1.20;;;36.60;37.40;;;;;;6255134;28;20052;-80
2022/08/04 09:11:06;;;;;;;1.80;0.70;;;36.70;36.90;;;;;;6256336;28;20501;-81
2022/08/04 09:14:22;;;;;;;3.72;0.90;;;36.80;37.10;;;;;;6256302;28;20508;-80
2022/08/04 09:17:29;;;;;;;5.53;0.70;;;37.00;36.90;;;;;;6255774;28;20127;-80
2022/08/04 09:20:34;;;;;;;;;;;37.20;36.30;;;;;;6255200;28;20041;-81
2022/08/04 09:23:45;;;;;;;1.05;0.70;;;37.10;36.40;;;;;;6255453;28;19927;-80
2022/08/04 09:26:53;;;;;;;4.53;1.05;;;37.30;36.50;;;;;;6268358;28;20112;-82
2022/08/04 09:30:03;;;;;;;4.45;0.77;;;37.50;36.30;;;;;;6271481;28;20063;-83
2022/08/04 09:33:15;;;;;;;6.35;1.23;;;37.50;35.10;;;;;;6279429;28;20077;-80
2022/08/04 09:36:28;;;;;;;3.83;1.00;;;37.50;36.10;;;;;;6279032;28;20554;-83
2022/08/04 09:39:42;;;;;;;6.20;0.90;;;37.60;35.60;;;;;;6279556;28;20504;-81
2022/08/04 09:42:53;;;;;;;2.80;0.80;;;37.80;35.70;;;;;;6278172;28;20045;-81
2022/08/04 09:46:02;;;;;;;1.25;0.80;;;38.10;35.70;;;;;;6278760;28;20049;-81
2022/08/04 09:49:13;;;;;;;1.25;0.80;;;38.30;35.30;;;;;;6279981;28;20072;-83
2022/08/04 09:52:25;;;;;;;7.57;0.88;;;38.50;34.90;;;;;;6285362;28;20104;-79
2022/08/04 09:55:40;;;;;;;3.60;0.80;;;38.50;34.70;;;;;;6290221;28;20041;-80
2022/08/04 09:58:55;;;;;;;7.68;0.80;;;38.60;34.50;;;;;;6290961;28;20122;-82
2022/08/04 10:02:03;;;;;;;1.88;0.80;;;38.80;34.60;;;;;;6292607;28;20045;-82
2022/08/04 10:05:10;;;;;;;3.60;0.82;;;39.20;34.50;;;;;;6290352;28;20063;-85
2022/08/04 10:08:36;;;;;;;2.88;0.82;;;40.20;33.70;;;;;;6286189;28;20498;-86
2022/08/04 10:11:54;;;;;;;2.80;0.70;;;41.40;33.00;;;;;;6281150;28;20041;-84
2022/08/04 10:15:08;;;;;;;1.25;0.98;;;41.90;31.70;;;;;;6281557;28;20056;-81
2022/08/04 10:18:23;;;;;;;5.22;1.05;;;41.70;31.60;;;;;;6284937;28;20053;-81
2022/08/04 10:21:36;;;;;;;4.50;1.00;;;41.20;31.80;;;;;;6283206;28;20056;-84
2022/08/04 10:24:53;;;;;;;1.70;0.80;;;40.70;32.60;;;;;;6282623;28;20053;-81
2022/08/04 10:27:59;;;;;;;3.30;0.60;;;40.60;32.80;;;;;;6281712;28;20158;-83
2022/08/04 10:31:09;;;;;;;2.80;1.05;;;40.50;32.20;;;;;;6281727;28;20067;-82
2022/08/04 10:34:17;;;;;;;3.38;0.68;;;40.50;32.10;;;;;;6283627;28;20065;-82
2022/08/04 10:37:24;;;;;;;1.45;0.82;;;40.50;32.90;;;;;;6285422;28;20072;-85
2022/08/04 10:40:37;;;;;;;2.45;0.50;;;40.70;32.70;;;;;;6283494;28;20049;-82
2022/08/04 10:43:49;;;;;;;1.80;0.80;;;40.80;32.10;;;;;;6283523;28;20108;-82
2022/08/04 10:46:57;;;;;;;1.30;0.55;;;41.00;31.80;;;;;;6284228;28;20041;-80
2022/08/04 10:50:01;;;;;;;2.35;0.70;;;41.20;31.60;;;;;;6282654;28;20055;-81
2022/08/04 10:53:09;;;;;;;1.45;0.75;;;41.50;31.50;;;;;;6283636;28;20132;-82
2022/08/04 10:56:17;;;;;;;10.50;0.90;;;41.70;31.20;;;;;;6282559;28;20060;-81
2022/08/04 10:59:27;;;;;;;1.00;0.60;;;41.90;30.50;;;;;;6282987;28;20049;-82
2022/08/04 11:02:37;;;;;;;5.30;0.75;;;42.10;30.10;;;;;;6283678;28;20102;-83
2022/08/04 11:05:42;;;;;;;0.47;0.35;;;42.30;29.60;;;;;;6284040;28;20076;-83
2022/08/04 11:08:50;;;;;;;0.57;0.50;;;42.60;29.30;;;;;;6283277;28;20045;-81
2022/08/04 11:11:56;;;;;;;1.95;0.47;;;42.70;29.10;;;;;;6283796;28;20045;-82
2022/08/04 11:15:03;;;;;;;2.53;0.57;;;42.90;28.70;;;;;;6282323;28;20463;-84
2022/08/04 11:18:13;;;;;;;1.15;0.40;;;42.90;28.80;;;;;;6282851;28;20063;-85
2022/08/04 11:21:20;;;;;;;4.05;0.55;;;43.10;28.50;;;;;;6283216;28;20526;-82
2022/08/04 11:24:28;;;;;;;3.15;0.60;;;43.30;28.50;;;;;;6287470;28;20051;-83
2022/08/04 11:27:39;;;;;;;8.73;0.75;;;43.50;28.80;;;;;;6282142;28;20048;-83
2022/08/04 11:30:51;;;;;;;0.60;0.45;;;43.80;28.60;;;;;;6277961;28;20045;-83
2022/08/04 11:34:01;;;;;;;1.30;0.60;;;44.00;28.50;;;;;;6282214;28;20053;-84
2022/08/04 11:37:10;;;;;;;1.58;0.65;;;44.10;28.10;;;;;;6281596;28;20052;-83
2022/08/04 11:40:20;;;;;;;0.98;0.57;;;44.10;27.90;;;;;;6278336;28;20056;-82
2022/08/04 11:43:26;;;;;;;3.33;0.30;;;44.20;28.10;;;;;;6281415;28;20049;-82
2022/08/04 11:46:35;;;;;;;0.60;0.40;;;44.30;27.10;;;;;;6281697;28;20049;-82
2022/08/04 11:49:43;;;;;;;2.13;0.40;;;44.50;27.50;;;;;;6278337;28;20127;-83
2022/08/04 11:52:46;;;;;;;0.70;0.30;;;44.80;27.30;;;;;;6304403;28;20127;-82
2022/08/04 11:55:51;;;;;;;0.40;0.30;;;45.00;27.40;;;;;;6306597;28;20543;-83
2022/08/04 11:58:55;;;;;;;0.45;0.40;;;45.10;26.60;;;;;;6296560;28;20148;-82
2022/08/04 12:02:19;;;;;;;0.25;0.22;;;45.10;26.20;;;;;;6282370;28;20183;-82
2022/08/04 12:05:28;;;;;;;4.32;0.70;;;45.10;26.40;;;;;;6256737;28;20049;-82
2022/08/04 12:08:44;;;;;;;0.65;0.15;;;45.30;26.40;;;;;;6274733;28;20072;-83
2022/08/04 12:11:59;;;;;;;1.25;0.47;;;45.50;26.20;;;;;;6260657;28;20117;-83
2022/08/04 12:15:12;;;;;;;1.73;0.40;;;45.60;25.90;;;;;;6259626;28;20044;-82
2022/08/04 12:18:20;;;;;;;4.30;0.60;;;45.70;25.80;;;;;;6282699;28;20048;-83
2022/08/04 12:21:31;;;;;;;1.88;0.47;;;45.70;26.10;;;;;;6303691;28;20067;-83
2022/08/04 12:24:37;;;;;;;6.25;0.40;;;45.80;26.20;;;;;;6281693;28;20056;-82
2022/08/04 12:27:45;;;;;;;0.50;0.50;;;45.80;25.70;;;;;;6279091;28;20202;-82
2022/08/04 12:30:52;;;;;;;0.35;0.20;;;45.90;25.40;;;;;;6281242;28;20040;-84
2022/08/04 12:33:57;;;;;;;0.30;0.20;;;45.90;25.30;;;;;;6281851;28;20051;-81
2022/08/04 12:37:04;;;;;;;0.97;0.47;;;45.90;25.10;;;;;;6279408;28;20048;-83
2022/08/04 12:40:13;;;;;;;1.88;0.30;;;46.20;25.00;;;;;;6298045;28;20052;-82
2022/08/04 12:43:22;;;;;;;0.20;0.20;;;46.40;25.20;;;;;;6294490;28;20053;-84
2022/08/04 12:46:26;;;;;;;1.88;0.43;;;46.20;25.40;;;;;;6284411;28;20041;-82
2022/08/04 12:49:29;;;;;;;0.75;0.30;;;45.90;25.40;;;;;;6306144;28;20044;-82
2022/08/04 12:52:42;;;;;;;1.98;0.60;;;45.80;25.70;;;;;;6281148;28;20045;-82
2022/08/04 12:55:47;;;;;;;0.95;0.32;;;45.90;25.80;;;;;;6303373;28;20048;-83
2022/08/04 12:58:53;;;;;;;0.80;0.30;;;46.10;25.80;;;;;;6297282;28;20045;-83
2022/08/04 13:01:57;;;;;;;2.75;0.38;;;46.10;25.80;;;;;;6279863;28;20059;-83
2022/08/04 13:05:02;;;;;;;1.73;0.30;;;46.30;25.50;;;;;;6304075;28;20048;-82
2022/08/04 13:08:07;;;;;;;0.98;0.25;;;46.40;25.50;;;;;;6303586;28;20048;-83
2022/08/04 13:11:10;;;;;;;1.83;0.50;;;46.60;25.40;;;;;;6303501;28;20040;-82
2022/08/04 13:14:15;;;;;;;0.47;0.28;;;46.80;25.20;;;;;;6304048;28;20075;-83
2022/08/04 13:17:18;;;;;;;1.10;0.20;;;46.80;25.20;;;;;;6303113;28;20048;-83
2022/08/04 13:20:26;;;;;;;2.20;0.30;;;47.00;24.90;;;;;;6258694;28;20130;-83
2022/08/04 13:23:30;;;;;;;0.30;0.20;;;47.20;24.40;;;;;;6274868;28;20045;-83
2022/08/04 13:26:34;;;;;;;2.17;0.30;;;47.00;23.70;;;;;;6279103;28;20053;-83
2022/08/04 13:29:38;;;;;;;0.20;0.20;;;47.00;23.30;;;;;;6283135;28;20059;-85
2022/08/04 13:32:41;;;;;;;4.25;0.38;;;47.00;23.50;;;;;;6282783;28;20040;-83
2022/08/04 13:35:44;;;;;;;1.48;0.20;;;47.10;23.60;;;;;;6284136;28;20099;-82
2022/08/04 13:38:51;;;;;;;0.25;0.10;;;47.20;23.70;;;;;;6282372;28;20040;-84
2022/08/04 13:41:57;;;;;;;2.22;0.20;;;47.40;23.30;;;;;;6282614;28;20502;-82
2022/08/04 13:45:00;;;;;;;0.40;0.20;;;47.50;23.20;;;;;;6282321;28;20049;-83
2022/08/04 13:48:03;;;;;;;0.77;0.30;;;47.20;23.10;;;;;;6282429;28;20048;-84
2022/08/04 13:51:06;;;;;;;1.98;0.40;;;47.10;23.00;;;;;;6282086;28;20045;-83
2022/08/04 13:54:09;;;;;;;3.70;0.40;;;47.10;23.10;;;;;;6282700;28;20056;-83
2022/08/04 13:57:14;;;;;;;3.53;0.30;;;47.00;22.90;;;;;;6283586;28;20052;-82
2022/08/04 14:00:17;;;;;;;0.22;0.20;;;47.10;22.90;;;;;;6282945;28;20049;-86
2022/08/04 14:03:30;;;;;;;0.80;0.28;;;47.20;22.90;;;;;;6283407;28;20051;-85
2022/08/04 14:06:34;;;;;;;1.45;0.20;;;47.40;22.90;;;;;;6284161;28;20511;-82
2022/08/04 14:09:39;;;;;;;1.95;0.30;;;47.50;23.10;;;;;;6284827;28;20056;-82
2022/08/04 14:12:45;;;;;;;6.78;0.80;;;47.30;22.90;;;;;;6283748;28;20041;-84
2022/08/04 14:15:50;;;;;;;5.35;0.40;;;47.30;22.90;;;;;;6282688;28;20045;-82
2022/08/04 14:18:59;;;;;;;3.70;0.22;;;47.30;22.90;;;;;;6283587;28;20041;-83
2022/08/04 14:22:01;;;;;;;0.90;0.30;;;47.20;22.90;;;;;;6283899;28;20044;-81
2022/08/04 14:25:08;;;;;;;5.30;0.30;;;47.20;22.90;;;;;;6284384;28;20049;-82
2022/08/04 14:28:09;;;;;;;2.95;0.20;;;47.10;23.30;;;;;;6267456;28;20041;-83
2022/08/04 14:31:13;;;;;;;1.95;0.20;;;46.90;22.90;;;;;;6282984;28;20045;-83
2022/08/04 14:34:26;;;;;;;2.05;0.10;;;46.80;23.10;;;;;;6280750;28;20056;-82
2022/08/04 14:37:28;;;;;;;0.57;0.30;;;46.90;22.70;;;;;;6279946;28;20049;-82
2022/08/04 14:40:32;;;;;;;0.30;0.17;;;47.20;22.70;;;;;;6281576;28;20080;-83
2022/08/04 14:43:41;;;;;;;1.45;0.13;;;47.20;22.70;;;;;;6284239;28;20056;-83
2022/08/04 14:46:51;;;;;;;0.50;0.20;;;47.10;22.60;;;;;;6281315;28;20052;-81
2022/08/04 14:49:55;;;;;;;4.32;0.30;;;47.00;22.60;;;;;;6281838;28;20053;-83
2022/08/04 14:53:03;;;;;;;1.45;0.30;;;47.00;22.60;;;;;;6279458;28;20039;-81
2022/08/04 14:56:08;;;;;;;0.35;0.00;;;46.90;22.30;;;;;;6277406;28;20116;-81
2022/08/04 14:59:11;;;;;;;0.40;0.20;;;46.70;22.20;;;;;;6281313;28;20535;-80
2022/08/04 15:02:14;;;;;;;0.32;0.17;;;46.40;22.50;;;;;;6280257;28;20060;-80
2022/08/04 15:05:15;;;;;;;0.85;0.30;;;46.40;22.30;;;;;;6282181;28;20055;-81
2022/08/04 15:08:18;;;;;;;1.50;0.20;;;46.20;21.80;;;;;;6279291;28;20049;-81
2022/08/04 15:11:22;;;;;;;1.85;0.32;;;46.30;21.80;;;;;;6280859;28;20045;-81
2022/08/04 15:14:25;;;;;;;0.43;0.20;;;46.40;22.20;;;;;;6279934;28;20361;-81
2022/08/04 15:17:27;;;;;;;1.65;0.20;;;46.60;22.50;;;;;;6280215;28;20049;-80
2022/08/04 15:20:31;;;;;;;0.15;0.10;;;46.50;22.60;;;;;;6280018;28;20512;-80
2022/08/04 15:23:33;;;;;;;0.93;0.20;;;46.40;22.70;;;;;;6278545;28;20044;-81
2022/08/04 15:26:41;;;;;;;0.55;0.28;;;46.30;22.80;;;;;;6279901;28;20040;-81
2022/08/04 15:29:46;;;;;;;0.50;0.20;;;46.30;22.60;;;;;;6279759;28;20055;-81
2022/08/04 15:32:51;;;;;;;1.00;0.37;;;46.20;23.00;;;;;;6280186;28;20419;-81
2022/08/04 15:36:08;;;;;;;0.17;0.03;;;46.10;23.10;;;;;;6280244;28;20401;-81
2022/08/04 15:39:18;;;;;;;;;;;46.10;23.10;;;;;;6280102;28;20052;-81
2022/08/04 15:42:33;;;;;;;2.13;0.30;;;46.00;23.10;;;;;;6282210;28;20288;-81
2022/08/04 15:45:49;;;;;;;1.08;0.30;;;46.00;22.80;;;;;;6282113;28;20071;-80
2022/08/04 15:48:51;;;;;;;1.15;0.30;;;45.90;22.80;;;;;;6280677;28;20052;-81
2022/08/04 15:52:00;;;;;;;2.60;0.30;;;45.80;22.70;;;;;;6280784;28;20045;-81
2022/08/04 15:55:34;;;;;;;0.38;0.20;;;45.70;23.10;;;;;;6291548;28;20044;-80
2022/08/04 15:58:50;;;;;;;3.63;0.32;;;45.50;23.40;;;;;;6295840;28;20575;-80
2022/08/04 16:02:28;;;;;;;0.50;0.30;;;45.50;23.60;;;;;;6278730;28;20071;-81
2022/08/04 16:05:38;;;;;;;3.22;0.40;;;45.40;23.70;;;;;;6306652;28;20048;-81
2022/08/04 16:08:58;;;;;;;0.60;0.32;;;45.20;24.20;;;;;;6303023;28;20048;-80
2022/08/04 16:12:00;;;;;;;0.65;0.30;;;44.90;24.70;;;;;;6300098;28;20044;-81
2022/08/04 16:15:35;;;;;;;2.67;0.35;;;44.90;25.00;;;;;;6300739;28;20037;-81
2022/08/04 16:18:43;;;;;;;2.28;0.30;;;44.80;25.00;;;;;;6301240;28;20604;-81
2022/08/04 16:21:50;;;;;;;1.95;0.30;;;44.70;25.00;;;;;;6299290;28;20055;-80
2022/08/04 16:24:53;;;;;;;1.58;0.43;;;44.60;24.90;;;;;;6306780;28;20045;-81
2022/08/04 16:27:55;;;;;;;2.35;0.43;;;44.50;24.90;;;;;;6301009;28;20044;-80
2022/08/04 16:31:00;;;;;;;3.08;0.50;;;44.40;24.90;;;;;;6300306;28;20059;-80
2022/08/04 16:34:03;;;;;;;3.17;0.75;;;44.30;25.40;;;;;;6298492;28;20454;-81